Time;durP1;ratioP1;P1;durP2;ratioP2;P2;SDS_P1;SDS_P2;PMS_P1;PMS_P2;Temp;Humidity;BMP_temperature;BMP_pressure;BME280_temperature;BME280_humidity;BME280_pressure;Samples;Min_cycle;Max_cycle;Signal;HPM_P1;HPM_P2
2022/09/03 00:02:08;;;;;;;;;;;20.20;60.70;;;;;;5055440;28;19916;-82
2022/09/03 00:04:51;;;;;;;;;;;20.20;61.40;;;;;;5054667;28;19921;-81
2022/09/03 00:07:25;;;;;;;;;;;20.20;63.80;;;;;;5054771;28;19909;-82
2022/09/03 00:09:55;;;;;;;;;;;20.20;62.80;;;;;;5056354;28;19909;-83
2022/09/03 00:12:23;;;;;;;;;;;20.20;64.30;;;;;;5056232;28;19909;-83
2022/09/03 00:14:52;;;;;;;;;;;20.20;61.30;;;;;;5055678;28;20289;-82
2022/09/03 00:17:23;;;;;;;;;;;20.10;60.80;;;;;;5054543;28;19908;-82
2022/09/03 00:19:56;;;;;;;;;;;20.10;61.20;;;;;;5055993;28;20066;-82
2022/09/03 00:22:25;;;;;;;;;;;20.20;60.80;;;;;;5055620;28;19913;-83
2022/09/03 00:24:51;;;;;;;;;;;20.10;62.50;;;;;;5054107;28;19917;-83
2022/09/03 00:27:22;;;;;;;;;;;20.10;60.50;;;;;;5053846;28;19915;-83
2022/09/03 00:29:51;;;;;;;;;;;20.10;61.30;;;;;;5056043;28;20007;-82
2022/09/03 00:32:25;;;;;;;;;;;20.10;62.30;;;;;;5055892;28;19908;-83
2022/09/03 00:35:02;;;;;;;;;;;20.10;61.80;;;;;;5055313;28;19905;-82
2022/09/03 00:37:28;;;;;;;;;;;20.10;62.60;;;;;;5055230;28;19959;-81
2022/09/03 00:39:55;;;;;;;;;;;20.10;61.70;;;;;;5054222;28;19947;-82
2022/09/03 00:42:46;;;;;;;;;;;20.10;61.80;;;;;;5055132;28;19971;-82
2022/09/03 00:45:18;;;;;;;;;;;20.10;61.50;;;;;;5053919;28;19955;-83
2022/09/03 00:48:11;;;;;;;;;;;20.10;60.50;;;;;;5052800;28;19912;-82
2022/09/03 00:51:01;;;;;;;;;;;20.10;61.60;;;;;;5055305;28;19962;-81
2022/09/03 00:53:32;;;;;;;;;;;20.00;61.20;;;;;;5054669;28;19908;-82
2022/09/03 00:56:19;;;;;;;;;;;20.00;59.80;;;;;;5055293;28;20007;-83
2022/09/03 00:59:03;;;;;;;;;;;20.00;61.70;;;;;;5055115;28;19909;-83
2022/09/03 01:01:49;;;;;;;;;;;20.00;61.70;;;;;;5053349;28;19913;-83
2022/09/03 01:04:24;;;;;;;;;;;19.90;62.20;;;;;;5054049;28;19955;-83
2022/09/03 01:06:57;;;;;;;;;;;19.90;61.20;;;;;;5057416;28;19952;-83
2022/09/03 01:09:30;;;;;;;;;;;19.90;63.30;;;;;;5056869;28;19913;-83
2022/09/03 01:11:58;;;;;;;;;;;19.90;62.20;;;;;;5056992;28;19909;-83
2022/09/03 01:14:35;;;;;;;;;;;19.80;62.10;;;;;;5057090;28;19916;-83
2022/09/03 01:17:02;;;;;;;;;;;19.80;64.50;;;;;;5057046;28;20415;-83
2022/09/03 01:19:27;;;;;;;;;;;19.80;63.70;;;;;;5058475;28;19909;-83
2022/09/03 01:22:14;;;;;;;;;;;19.80;62.80;;;;;;5057367;28;19916;-83
2022/09/03 01:24:39;;;;;;;;;;;19.70;63.50;;;;;;5057185;28;20007;-82
2022/09/03 01:27:14;;;;;;;;;;;19.80;63.40;;;;;;5060979;28;19931;-82
2022/09/03 01:29:58;;;;;;;;;;;19.70;62.40;;;;;;5059237;28;19909;-82
2022/09/03 01:32:27;;;;;;;;;;;19.70;64.50;;;;;;5060190;28;20402;-82
2022/09/03 01:34:58;;;;;;;;;;;19.70;65.80;;;;;;5057868;28;19954;-82
2022/09/03 01:37:42;;;;;;;;;;;19.70;65.10;;;;;;5055965;28;19909;-81
2022/09/03 01:40:26;;;;;;;;;;;19.70;65.10;;;;;;5055471;28;19908;-82
2022/09/03 01:42:58;;;;;;;;;;;19.70;66.30;;;;;;5055933;28;19916;-82
2022/09/03 01:45:47;;;;;;;;;;;19.60;68.50;;;;;;5056768;28;20260;-81
2022/09/03 01:48:32;;;;;;;;;;;19.60;67.60;;;;;;5057466;28;19948;-82
2022/09/03 01:51:07;;;;;;;;;;;19.60;68.30;;;;;;5054908;28;19909;-81
2022/09/03 01:53:33;;;;;;;;;;;19.60;66.20;;;;;;5056765;28;19916;-81
2022/09/03 01:56:17;;;;;;;;;;;19.50;65.30;;;;;;5056005;28;20364;-82
2022/09/03 01:58:56;;;;;;;;;;;19.50;68.20;;;;;;5056902;28;19915;-82
2022/09/03 02:01:25;;;;;;;;;;;19.50;66.50;;;;;;5057425;28;20350;-81
2022/09/03 02:03:51;;;;;;;;;;;19.40;66.30;;;;;;5057015;28;19912;-82
2022/09/03 02:06:19;;;;;;;;;;;19.40;67.30;;;;;;5055711;28;19971;-81
2022/09/03 02:08:45;;;;;;;;;;;19.50;68.40;;;;;;5055390;28;19912;-82
2022/09/03 02:11:10;;;;;;;;;;;19.40;68.70;;;;;;5056953;28;19959;-82
2022/09/03 02:13:37;;;;;;;;;;;19.40;66.80;;;;;;5054749;28;20375;-82
2022/09/03 02:16:19;;;;;;;;;;;19.40;69.90;;;;;;5053788;28;20372;-83
2022/09/03 02:18:55;;;;;;;;;;;19.40;67.10;;;;;;5055186;28;19909;-81
2022/09/03 02:21:21;;;;;;;;;;;19.40;67.80;;;;;;5056533;28;19909;-82
2022/09/03 02:23:47;;;;;;;;;;;19.30;68.10;;;;;;5055432;28;19920;-83
2022/09/03 02:26:14;;;;;;;;;;;19.30;68.90;;;;;;5053807;28;19959;-84
2022/09/03 02:28:40;;;;;;;;;;;19.40;69.00;;;;;;5054227;28;19932;-82
2022/09/03 02:31:06;;;;;;;;;;;19.30;69.50;;;;;;5055877;28;19909;-82
2022/09/03 02:33:34;;;;;;;;;;;19.40;68.50;;;;;;5055666;28;19919;-82
2022/09/03 02:36:00;;;;;;;;;;;19.30;69.10;;;;;;5054139;28;19909;-82
2022/09/03 02:38:26;;;;;;;;;;;19.30;70.00;;;;;;5053996;28;19915;-82
2022/09/03 02:40:53;;;;;;;;;;;19.30;71.50;;;;;;5055579;28;19919;-81
2022/09/03 02:43:40;;;;;;;;;;;19.30;69.70;;;;;;5053992;28;19912;-82
2022/09/03 02:46:07;;;;;;;;;;;19.30;69.40;;;;;;5053890;28;20265;-81
2022/09/03 02:48:33;;;;;;;;;;;19.30;70.10;;;;;;5053688;28;19959;-82
2022/09/03 02:50:59;;;;;;;;;;;19.30;71.60;;;;;;5053656;28;19956;-82
2022/09/03 02:53:27;;;;;;;;;;;19.30;69.90;;;;;;5053538;28;19908;-82
2022/09/03 02:55:56;;;;;;;;;;;19.20;70.60;;;;;;5053231;28;19909;-81
2022/09/03 02:58:21;;;;;;;;;;;19.20;70.40;;;;;;5053374;28;20007;-81
2022/09/03 03:00:48;;;;;;;;;;;19.20;72.80;;;;;;5054784;28;20018;-82
2022/09/03 03:03:13;;;;;;;;;;;19.10;72.80;;;;;;5053235;28;19909;-81
2022/09/03 03:05:41;;;;;;;;;;;19.10;72.80;;;;;;5054084;28;20419;-81
2022/09/03 03:08:07;;;;;;;;;;;19.10;72.30;;;;;;5054500;28;19916;-83
2022/09/03 03:10:34;;;;;;;;;;;19.10;73.50;;;;;;5053430;28;20307;-82
2022/09/03 03:12:59;;;;;;;;;;;19.10;73.40;;;;;;5053025;28;19970;-82
2022/09/03 03:15:26;;;;;;;;;;;19.10;74.00;;;;;;5054423;28;19909;-82
2022/09/03 03:17:54;;;;;;;;;;;19.10;73.30;;;;;;5052773;28;19909;-80
2022/09/03 03:20:20;;;;;;;;;;;19.00;72.70;;;;;;5054188;28;19908;-83
2022/09/03 03:22:45;;;;;;;;;;;19.00;73.50;;;;;;5053012;28;20414;-81
2022/09/03 03:25:10;;;;;;;;;;;19.00;74.80;;;;;;5052684;28;19924;-83
2022/09/03 03:27:38;;;;;;;;;;;19.00;78.20;;;;;;5052090;28;19919;-83
2022/09/03 03:30:04;;;;;;;;;;;18.90;77.70;;;;;;5053921;28;19909;-82
2022/09/03 03:32:29;;;;;;;;;;;18.90;78.10;;;;;;5052875;28;19913;-82
2022/09/03 03:34:55;;;;;;;;;;;18.90;80.90;;;;;;5052609;28;19956;-82
2022/09/03 03:37:20;;;;;;;;;;;18.80;83.80;;;;;;5052977;28;20580;-81
2022/09/03 03:39:46;;;;;;;;;;;18.80;86.00;;;;;;5053883;28;19967;-83
2022/09/03 03:42:13;;;;;;;;;;;18.80;84.80;;;;;;5052507;28;19916;-83
2022/09/03 03:44:38;;;;;;;;;;;18.70;83.70;;;;;;5053567;28;19913;-83
2022/09/03 03:47:04;;;;;;;;;;;18.70;88.40;;;;;;5052264;28;19918;-82
2022/09/03 03:49:30;;;;;;;;;;;18.70;88.90;;;;;;5053543;28;19908;-80
2022/09/03 03:51:55;;;;;;;;;;;18.70;87.40;;;;;;5052363;28;19908;-81
2022/09/03 03:54:21;;;;;;;;;;;18.60;88.70;;;;;;5052111;28;20003;-81
2022/09/03 03:56:47;;;;;;;;;;;18.60;88.30;;;;;;5051928;28;19909;-81
2022/09/03 03:59:12;;;;;;;;;;;18.60;89.10;;;;;;5053373;28;19916;-81
2022/09/03 04:01:38;;;;;;;;;;;18.60;91.10;;;;;;5052300;28;19909;-81
2022/09/03 04:04:04;;;;;;;;;;;18.50;91.80;;;;;;5051832;28;19913;-83
2022/09/03 04:06:30;;;;;;;;;;;18.50;92.10;;;;;;5051688;28;19916;-83
2022/09/03 04:08:55;;;;;;;;;;;18.50;90.60;;;;;;5052004;28;20368;-80
2022/09/03 04:11:22;;;;;;;;;;;18.50;91.20;;;;;;5052080;28;19917;-83
2022/09/03 04:13:48;;;;;;;;;;;18.50;92.90;;;;;;5090497;22;19925;-82
2022/09/03 04:16:15;;;;;;;;;;;18.40;93.40;;;;;;5034392;28;19913;-82
2022/09/03 04:18:41;;;;;;;;;;;18.40;92.00;;;;;;5032983;28;19915;-81
2022/09/03 04:21:10;;;;;;;;;;;18.40;93.30;;;;;;5034153;28;20368;-81
2022/09/03 04:23:40;;;;;;;;;;;18.40;91.70;;;;;;5033855;28;19992;-81
2022/09/03 04:26:06;;;;;;;;;;;18.40;93.20;;;;;;5033246;28;19920;-81
2022/09/03 04:28:32;;;;;;;;;;;18.40;92.20;;;;;;5032871;28;20051;-81
2022/09/03 04:31:01;;;;;;;;;;;18.30;93.00;;;;;;5034462;28;19952;-83
2022/09/03 04:33:27;;;;;;;;;;;18.40;93.70;;;;;;5033617;28;19914;-84
2022/09/03 04:35:59;;;;;;;;;;;18.40;92.20;;;;;;5035128;28;19909;-84
2022/09/03 04:38:27;;;;;;;;;;;18.40;92.30;;;;;;5034548;28;19920;-83
2022/09/03 04:40:53;;;;;;;;;;;18.40;93.10;;;;;;5035007;28;19910;-84
2022/09/03 04:43:18;;;;;;;;;;;18.40;93.90;;;;;;5033862;28;20388;-84
2022/09/03 04:45:44;;;;;;;;;;;18.40;92.60;;;;;;5035004;28;19909;-84
2022/09/03 04:48:10;;;;;;;;;;;18.40;92.30;;;;;;5035190;28;19956;-84
2022/09/03 04:50:36;;;;;;;;;;;18.40;93.80;;;;;;5036223;28;19913;-83
2022/09/03 04:53:03;;;;;;;;;;;18.50;92.90;;;;;;5033732;28;19932;-85
2022/09/03 04:55:32;;;;;;;;;;;18.50;92.30;;;;;;5034205;28;19916;-83
2022/09/03 04:57:58;;;;;;;;;;;18.50;92.80;;;;;;5033930;28;19927;-84
2022/09/03 05:00:24;;;;;;;;;;;18.60;93.40;;;;;;5034041;28;19932;-83
2022/09/03 05:02:50;;;;;;;;;;;18.60;91.30;;;;;;5034014;28;20281;-83
2022/09/03 05:05:16;;;;;;;;;;;18.60;91.50;;;;;;5033635;28;19920;-84
2022/09/03 05:07:42;;;;;;;;;;;18.70;92.10;;;;;;5034218;28;19910;-84
2022/09/03 05:10:11;;;;;;;;;;;18.70;91.50;;;;;;5035233;28;19909;-83
2022/09/03 05:12:37;;;;;;;;;;;18.70;92.10;;;;;;5034816;28;19909;-84
2022/09/03 05:15:04;;;;;;;;;;;18.80;92.20;;;;;;5034030;28;20004;-85
2022/09/03 05:17:29;;;;;;;;;;;18.80;92.60;;;;;;5033650;28;20395;-83
2022/09/03 05:19:55;;;;;;;;;;;18.80;92.00;;;;;;5035032;28;19913;-84
2022/09/03 05:22:20;;;;;;;;;;;18.80;91.80;;;;;;5033205;28;19910;-85
2022/09/03 05:24:47;;;;;;;;;;;18.80;91.50;;;;;;5032825;28;20019;-83
2022/09/03 05:27:15;;;;;;;;;;;18.80;93.40;;;;;;5034744;28;20008;-84
2022/09/03 05:29:41;;;;;;;;;;;18.80;92.70;;;;;;5033035;28;19917;-84
2022/09/03 05:32:07;;;;;;;;;;;18.90;92.90;;;;;;5033190;28;19916;-87
2022/09/03 05:34:32;;;;;;;;;;;18.90;92.70;;;;;;5033093;28;20003;-84
2022/09/03 05:36:58;;;;;;;;;;;18.90;92.80;;;;;;5033681;28;20336;-84
2022/09/03 05:39:23;;;;;;;;;;;19.00;91.40;;;;;;5033475;28;19959;-84
2022/09/03 05:41:51;;;;;;;;;;;19.10;91.60;;;;;;5033217;28;19910;-84
2022/09/03 05:44:17;;;;;;;;;;;19.10;90.60;;;;;;5034729;28;19920;-84
2022/09/03 05:46:43;;;;;;;;;;;19.10;90.30;;;;;;5034010;28;19909;-83
2022/09/03 05:49:10;;;;;;;;;;;19.10;90.60;;;;;;5033718;28;19915;-83
2022/09/03 05:51:38;;;;;;;;;;;19.20;91.80;;;;;;5036841;28;19910;-84
2022/09/03 05:54:04;;;;;;;;;;;19.20;90.60;;;;;;5036621;28;20004;-84
2022/09/03 05:56:30;;;;;;;;;;;19.30;91.30;;;;;;5037916;28;19940;-84
2022/09/03 05:58:59;;;;;;;;;;;19.30;90.30;;;;;;5036265;28;19913;-84
2022/09/03 06:01:27;;;;;;;;;;;19.30;90.50;;;;;;5036505;28;19959;-83
2022/09/03 06:03:59;;;;;;;;;;;19.40;92.50;;;;;;5037211;28;20344;-83
2022/09/03 06:06:26;;;;;;;;;;;19.40;90.20;;;;;;5036128;28;19913;-85
2022/09/03 06:08:52;;;;;;;;;;;19.50;90.80;;;;;;5036264;28;19909;-85
2022/09/03 06:11:17;;;;;;;;;;;19.60;92.30;;;;;;5037431;28;19917;-83
2022/09/03 06:13:43;;;;;;;;;;;19.60;91.30;;;;;;5035671;28;20261;-83
2022/09/03 06:16:08;;;;;;;;;;;19.70;90.90;;;;;;5036699;28;19909;-83
2022/09/03 06:18:34;;;;;;;;;;;19.80;90.20;;;;;;5036588;28;20296;-84
2022/09/03 06:21:00;;;;;;;;;;;19.80;90.50;;;;;;5035314;28;19915;-84
2022/09/03 06:23:27;;;;;;;;;;;19.80;89.70;;;;;;5034996;28;19913;-84
2022/09/03 06:26:00;;;;;;;;;;;19.90;90.00;;;;;;5035483;28;20315;-84
2022/09/03 06:28:26;;;;;;;;;;;19.90;90.70;;;;;;5036828;28;19920;-83
2022/09/03 06:30:51;;;;;;;;;;;19.80;89.60;;;;;;5037027;28;19909;-84
2022/09/03 06:33:17;;;;;;;;;;;19.90;90.60;;;;;;5035965;28;19967;-84
2022/09/03 06:35:43;;;;;;;;;;;19.90;87.80;;;;;;5036760;28;20337;-83
2022/09/03 06:38:11;;;;;;;;;;;19.90;87.50;;;;;;5035738;28;19909;-84
2022/09/03 06:40:37;;;;;;;;;;;20.00;88.40;;;;;;5035887;28;19913;-85
2022/09/03 06:43:03;;;;;;;;;;;20.00;88.30;;;;;;5035486;28;19916;-83
2022/09/03 06:45:29;;;;;;;;;;;20.00;87.60;;;;;;5035246;28;19920;-83
2022/09/03 06:47:54;;;;;;;;;;;20.10;90.30;;;;;;5036705;28;20144;-84
2022/09/03 06:50:20;;;;;;;;;;;20.20;86.40;;;;;;5035966;28;20373;-83
2022/09/03 06:52:53;;;;;;;;;;;20.30;87.30;;;;;;5034286;28;19956;-83
2022/09/03 06:55:21;;;;;;;;;;;20.40;87.20;;;;;;5035086;28;19916;-84
2022/09/03 06:57:47;;;;;;;;;;;20.40;85.40;;;;;;5034176;28;19956;-85
2022/09/03 07:00:13;;;;;;;;;;;20.50;84.80;;;;;;5035907;28;19910;-83
2022/09/03 07:02:40;;;;;;;;;;;20.50;85.70;;;;;;5033522;28;19915;-84
2022/09/03 07:05:06;;;;;;;;;;;20.50;86.00;;;;;;5034497;28;19917;-83
2022/09/03 07:07:32;;;;;;;;;;;20.70;89.00;;;;;;5034163;28;19909;-82
2022/09/03 07:09:57;;;;;;;;;;;20.80;90.10;;;;;;5034615;28;19909;-81
2022/09/03 07:12:22;;;;;;;;;;;20.90;86.70;;;;;;5035905;28;19909;-81
2022/09/03 07:14:49;;;;;;;;;;;21.00;85.30;;;;;;5036872;28;20432;-82
2022/09/03 07:17:15;;;;;;;;;;;21.00;84.80;;;;;;5036441;28;19917;-81
2022/09/03 07:19:41;;;;;;;;;;;21.00;86.90;;;;;;5036643;28;19909;-80
2022/09/03 07:22:08;;;;;;;;;;;21.10;86.20;;;;;;5036513;28;20276;-82
2022/09/03 07:24:34;;;;;;;;;;;21.20;89.50;;;;;;5035587;28;19912;-82
2022/09/03 07:27:00;;;;;;;;;;;21.10;83.40;;;;;;5035391;28;19909;-81
2022/09/03 07:29:26;;;;;;;;;;;21.10;84.90;;;;;;5036887;28;20008;-81
2022/09/03 07:31:51;;;;;;;;;;;21.10;83.40;;;;;;5036854;28;20371;-81
2022/09/03 07:34:17;;;;;;;;;;;21.10;86.20;;;;;;5036866;28;19909;-81
2022/09/03 07:36:45;;;;;;;;;;;21.10;86.60;;;;;;5036078;28;19910;-82
2022/09/03 07:39:12;;;;;;;;;;;21.10;82.60;;;;;;5036462;28;19911;-81
2022/09/03 07:41:38;;;;;;;;;;;21.10;83.20;;;;;;5037182;28;19909;-82
2022/09/03 07:44:06;;;;;;;;;;;21.10;82.50;;;;;;5035030;28;19920;-81
2022/09/03 07:46:33;;;;;;;;;;;21.10;86.20;;;;;;5036811;28;19909;-81
2022/09/03 07:49:01;;;;;;;;;;;21.20;85.50;;;;;;5036649;28;19909;-81
2022/09/03 07:51:27;;;;;;;;;;;21.10;86.90;;;;;;5035011;28;19916;-81
2022/09/03 07:53:54;;;;;;;;;;;21.10;87.50;;;;;;5035509;28;20009;-82
2022/09/03 07:56:20;;;;;;;;;;;21.10;83.20;;;;;;5036598;28;19952;-82
2022/09/03 07:58:46;;;;;;;;;;;21.10;87.30;;;;;;5036426;28;20291;-84
2022/09/03 08:01:13;;;;;;;;;;;21.10;87.80;;;;;;5035213;28;19964;-81
2022/09/03 08:03:43;;;;;;;;;;;21.20;86.70;;;;;;5035377;28;19916;-81
2022/09/03 08:06:09;;;;;;;;;;;21.30;85.80;;;;;;5036458;28;19909;-81
2022/09/03 08:08:35;;;;;;;;;;;21.40;85.50;;;;;;5036303;28;19909;-81
2022/09/03 08:11:10;;;;;;;;;;;21.50;84.50;;;;;;5034994;28;19940;-81
2022/09/03 08:13:40;;;;;;;;;;;21.60;82.40;;;;;;5035966;28;19927;-83
2022/09/03 08:16:06;;;;;;;;;;;21.80;85.40;;;;;;5035460;28;19924;-84
2022/09/03 08:18:36;;;;;;;;;;;22.00;83.50;;;;;;5036065;28;20365;-81
2022/09/03 08:21:15;;;;;;;;;;;22.20;83.00;;;;;;5035084;28;20336;-82
2022/09/03 08:23:50;;;;;;;;;;;22.50;83.30;;;;;;5036238;28;19909;-82
2022/09/03 08:26:17;;;;;;;;;;;22.70;80.50;;;;;;5035762;28;19909;-82
2022/09/03 08:28:42;;;;;;;;;;;22.90;80.00;;;;;;5036183;28;19974;-82
2022/09/03 08:31:10;;;;;;;;;;;23.10;81.00;;;;;;5036177;28;20372;-81
2022/09/03 08:33:37;;;;;;;;;;;23.20;79.00;;;;;;5033479;28;19920;-84
2022/09/03 08:36:07;;;;;;;;;;;23.30;81.30;;;;;;5034268;28;19909;-81
2022/09/03 08:38:33;;;;;;;;;;;23.30;79.90;;;;;;5035934;28;19909;-83
2022/09/03 08:41:07;;;;;;;;;;;23.20;78.30;;;;;;5035050;28;19910;-82
2022/09/03 08:43:37;;;;;;;;;;;23.00;78.70;;;;;;5032074;28;19952;-82
2022/09/03 08:46:03;;;;;;;;;;;23.00;81.00;;;;;;5032789;28;19931;-84
2022/09/03 08:48:28;;;;;;;;;;;22.80;80.30;;;;;;5033974;28;19913;-83
2022/09/03 08:50:58;;;;;;;;;;;22.80;81.20;;;;;;5033673;28;19909;-83
2022/09/03 08:53:37;;;;;;;;;;;22.80;83.40;;;;;;5032196;28;20328;-84
2022/09/03 08:56:07;;;;;;;;;;;22.80;82.30;;;;;;5032851;28;19910;-83
2022/09/03 08:58:34;;;;;;;;;;;22.70;84.10;;;;;;5032328;28;19910;-83
2022/09/03 09:01:02;;;;;;;;;;;22.70;83.20;;;;;;5034192;28;19917;-83
2022/09/03 09:03:29;;;;;;;;;;;22.60;86.20;;;;;;5033046;28;19916;-84
2022/09/03 09:06:12;;;;;;;;;;;22.50;84.70;;;;;;5031306;28;19963;-84
2022/09/03 09:08:37;;;;;;;;;;;22.40;88.10;;;;;;5031615;28;20007;-83
2022/09/03 09:11:12;;;;;;;;;;;22.30;88.90;;;;;;5032624;28;19947;-83
2022/09/03 09:13:56;;;;;;;;;;;22.40;90.60;;;;;;5031244;28;19924;-82
2022/09/03 09:16:29;;;;;;;;;;;22.50;89.70;;;;;;5031807;28;20361;-84
2022/09/03 09:19:01;;;;;;;;;;;22.60;89.30;;;;;;5032184;28;20303;-82
2022/09/03 09:21:28;;;;;;;;;;;22.70;88.60;;;;;;5033361;28;19909;-83
2022/09/03 09:23:56;;;;;;;;;;;22.80;88.10;;;;;;5032582;28;19964;-83
2022/09/03 09:26:22;;;;;;;;;;;23.00;90.00;;;;;;5036160;28;19909;-83
2022/09/03 09:28:56;;;;;;;;;;;22.90;86.20;;;;;;5035541;28;19964;-82
2022/09/03 09:31:22;;;;;;;;;;;22.90;89.00;;;;;;5036358;28;19909;-83
2022/09/03 09:33:48;;;;;;;;;;;22.90;89.60;;;;;;5035238;28;19909;-84
2022/09/03 09:36:15;;;;;;;;;;;23.00;88.90;;;;;;5034832;28;19909;-83
2022/09/03 09:38:42;;;;;;;;;;;23.10;88.30;;;;;;5035801;28;19909;-83
2022/09/03 09:41:12;;;;;;;;;;;23.70;88.30;;;;;;5035889;28;19909;-85
2022/09/03 09:43:38;;;;;;;;;;;25.40;86.50;;;;;;5035404;28;19916;-83
2022/09/03 09:46:20;;;;;;;;;;;26.80;78.90;;;;;;5035284;28;19909;-84
2022/09/03 09:48:53;;;;;;;;;;;27.20;76.50;;;;;;5036553;28;19909;-84
2022/09/03 09:51:21;;;;;;;;;;;27.50;73.00;;;;;;5034780;28;20439;-82
2022/09/03 09:53:46;;;;;;;;;;;27.70;70.10;;;;;;5035118;28;19909;-83
2022/09/03 09:56:23;;;;;;;;;;;27.80;68.70;;;;;;5035364;28;19916;-83
2022/09/03 09:58:48;;;;;;;;;;;27.70;67.10;;;;;;5036930;28;20000;-83
2022/09/03 10:01:20;;;;;;;;;;;27.50;66.30;;;;;;5035046;28;20420;-83
2022/09/03 10:03:49;;;;;;;;;;;27.00;66.40;;;;;;5035050;28;19909;-83
2022/09/03 10:09:13;;;;;;;;;;;26.80;68.70;;;;;;5036312;28;19916;-82
2022/09/03 10:11:42;;;;;;;;;;;26.70;68.70;;;;;;5035796;28;19951;-84
2022/09/03 10:14:15;;;;;;;;;;;26.60;70.00;;;;;;5040720;28;19924;-82
2022/09/03 10:16:47;;;;;;;;;;;26.70;71.60;;;;;;5048424;28;20518;-82
2022/09/03 10:19:39;;;;;;;;;;;26.70;70.40;;;;;;5046615;28;19909;-82
2022/09/03 10:22:08;;;;;;;;;;;26.60;69.70;;;;;;5044092;28;19972;-82
2022/09/03 10:24:40;;;;;;;;;;;26.70;74.20;;;;;;5043589;28;20283;-82
2022/09/03 10:27:09;;;;;;;;;;;26.70;70.50;;;;;;5044585;28;19909;-82
2022/09/03 10:29:34;;;;;;;;;;;26.60;70.10;;;;;;5044401;28;20284;-81
2022/09/03 10:32:03;;;;;;;;;;;26.40;68.80;;;;;;5046807;28;19909;-82
2022/09/03 10:34:58;;;;;;;;;;;26.10;70.90;;;;;;5043392;28;20111;-82
2022/09/03 10:37:39;;;;;;;;;;;26.00;72.30;;;;;;5025870;28;19913;-81
2022/09/03 10:40:11;;;;;;;;;;;25.80;72.30;;;;;;5041110;28;19917;-83
2022/09/03 10:42:56;;;;;;;;;;;26.00;74.50;;;;;;5041181;28;20378;-86
2022/09/03 10:45:45;;;;;;;;;;;26.20;75.40;;;;;;5047368;28;19913;-84
2022/09/03 10:48:31;;;;;;;;;;;26.30;74.30;;;;;;5003289;28;19893;-83
2022/09/03 10:51:24;;;;;;;;;;;26.30;72.80;;;;;;5049512;28;19909;-84
2022/09/03 11:03:44;;;;;;;;;;;26.80;74.60;;;;;;5012744;28;19921;-83
2022/09/03 11:09:52;;;;;;;;;;;26.80;76.20;;;;;;4959751;29;20025;-84
2022/09/03 11:12:37;;;;;;;;;;;26.60;75.20;;;;;;5007612;28;19996;-82
2022/09/03 11:15:12;;;;;;;;;;;26.80;77.30;;;;;;5007918;28;19921;-83
2022/09/03 11:17:39;;;;;;;;;;;26.80;75.60;;;;;;5020631;28;19909;-84
2022/09/03 11:20:08;;;;;;;;;;;26.90;76.60;;;;;;5046335;28;19917;-84
2022/09/03 11:22:34;;;;;;;;;;;26.80;74.40;;;;;;5044909;28;19913;-85
2022/09/03 11:25:04;;;;;;;;;;;26.80;78.70;;;;;;5046593;28;19920;-85
2022/09/03 11:27:30;;;;;;;;;;;26.80;79.50;;;;;;5046164;28;19932;-85
2022/09/03 11:29:55;;;;;;;;;;;26.80;77.60;;;;;;5042112;28;20373;-82
2022/09/03 11:32:23;;;;;;;;;;;26.90;80.00;;;;;;5031891;28;19909;-83
2022/09/03 11:34:49;;;;;;;;;;;26.80;77.60;;;;;;5044348;28;19920;-82
2022/09/03 11:37:20;;;;;;;;;;;26.80;75.80;;;;;;5041369;28;19913;-83
2022/09/03 11:40:02;;;;;;;;;;;26.70;78.00;;;;;;5043151;28;19940;-82
2022/09/03 11:42:34;;;;;;;;;;;26.70;80.70;;;;;;5042465;28;19909;-81
2022/09/03 11:45:12;;;;;;;;;;;26.80;81.00;;;;;;5041031;28;20368;-82
2022/09/03 11:47:39;;;;;;;;;;;26.80;80.00;;;;;;5038366;28;19909;-82
2022/09/03 11:50:19;;;;;;;;;;;27.00;81.50;;;;;;5039991;28;19913;-81
2022/09/03 11:52:44;;;;;;;;;;;27.00;79.90;;;;;;5040151;28;19913;-82
2022/09/03 11:55:10;;;;;;;;;;;27.10;81.60;;;;;;5041532;28;20358;-83
2022/09/03 11:57:42;;;;;;;;;;;27.20;79.70;;;;;;5039605;28;19992;-82
2022/09/03 12:00:12;;;;;;;;;;;27.10;78.40;;;;;;5039529;28;19941;-82
2022/09/03 12:02:45;;;;;;;;;;;27.10;80.00;;;;;;5039943;28;19932;-83
2022/09/03 12:05:35;;;;;;;;;;;27.10;79.80;;;;;;5041373;28;20368;-82
2022/09/03 12:08:01;;;;;;;;;;;27.10;82.30;;;;;;5040603;28;19910;-82
2022/09/03 12:10:26;;;;;;;;;;;27.10;82.80;;;;;;5041392;28;19916;-82
2022/09/03 12:12:55;;;;;;;;;;;27.00;79.90;;;;;;5039622;28;19920;-82
2022/09/03 12:15:39;;;;;;;;;;;27.00;82.10;;;;;;5040243;28;19921;-82
2022/09/03 12:18:19;;;;;;;;;;;26.80;83.00;;;;;;5040016;28;19952;-82
2022/09/03 12:20:59;;;;;;;;;;;26.90;82.00;;;;;;5039187;28;19913;-82
2022/09/03 12:23:29;;;;;;;;;;;27.00;83.30;;;;;;5039243;28;20364;-82
2022/09/03 12:25:56;;;;;;;;;;;27.20;82.30;;;;;;5040445;28;19944;-82
2022/09/03 12:28:23;;;;;;;;;;;27.20;80.90;;;;;;5039073;28;20053;-82
2022/09/03 12:30:52;;;;;;;;;;;27.30;81.40;;;;;;5041956;28;19944;-85
2022/09/03 12:33:18;;;;;;;;;;;27.40;79.70;;;;;;5045198;28;19909;-85
2022/09/03 12:35:54;;;;;;;;;;;27.50;81.30;;;;;;5041507;28;19914;-83
2022/09/03 12:38:23;;;;;;;;;;;27.70;79.80;;;;;;5043751;28;19909;-84
2022/09/03 12:40:49;;;;;;;;;;;27.80;81.00;;;;;;5044657;28;19913;-84
2022/09/03 12:43:16;;;;;;;;;;;27.90;80.50;;;;;;5044828;28;20285;-83
2022/09/03 12:45:49;;;;;;;;;;;27.90;78.90;;;;;;5045042;28;19973;-83
2022/09/03 12:48:16;;;;;;;;;;;28.00;81.10;;;;;;5046659;28;20435;-84
2022/09/03 12:50:42;;;;;;;;;;;28.10;80.90;;;;;;5043020;28;19913;-84
2022/09/03 12:53:10;;;;;;;;;;;28.00;77.90;;;;;;5045533;28;19909;-84
2022/09/03 12:55:40;;;;;;;;;;;28.00;79.90;;;;;;5042885;28;19952;-85
2022/09/03 12:58:43;;;;;;;;;;;28.00;79.20;;;;;;5045329;28;19917;-87
2022/09/03 13:01:28;;;;;;;;;;;28.10;80.20;;;;;;5034983;28;19905;-86
2022/09/03 13:04:31;;;;;;;;;;;28.20;79.70;;;;;;5044076;28;19981;-86
2022/09/03 13:07:22;;;;;;;;;;;28.30;79.70;;;;;;5052833;28;19921;-87
2022/09/03 13:10:41;;;;;;;;;;;28.30;80.20;;;;;;5070104;28;20146;-87
2022/09/03 13:16:45;;;;;;;;;;;28.40;79.20;;;;;;5074867;28;19912;-87
2022/09/03 13:19:58;;;;;;;;;;;28.50;82.00;;;;;;5016699;28;19939;-87
2022/09/03 13:22:30;;;;;;;;;;;28.60;79.50;;;;;;5013520;28;19918;-86
2022/09/03 13:31:20;;;;;;;;;;;28.40;78.90;;;;;;5008442;28;19958;-87
2022/09/03 13:34:00;;;;;;;;;;;28.50;79.20;;;;;;5006758;28;19978;-86
2022/09/03 13:36:41;;;;;;;;;;;28.50;78.30;;;;;;4994744;28;20472;-85
2022/09/03 13:39:15;;;;;;;;;;;28.60;79.90;;;;;;4982862;28;19910;-87
2022/09/03 13:41:45;;;;;;;;;;;28.80;76.90;;;;;;5015872;28;19949;-84
2022/09/03 13:47:26;;;;;;;;;;;28.80;76.10;;;;;;5040338;28;19964;-84
2022/09/03 13:56:18;;;;;;;;;;;28.90;76.20;;;;;;5046244;28;19920;-86
2022/09/03 13:59:15;;;;;;;;;;;29.20;75.50;;;;;;5037992;28;19913;-88
2022/09/03 14:01:44;;;;;;;;;;;29.30;74.20;;;;;;5043676;28;19913;-87
2022/09/03 14:04:26;;;;;;;;;;;29.20;76.20;;;;;;5040285;28;20023;-88
2022/09/03 14:06:55;;;;;;;;;;;29.20;76.80;;;;;;5043039;28;19909;-87
2022/09/03 14:09:21;;;;;;;;;;;29.30;77.10;;;;;;5039406;28;19909;-85
2022/09/03 14:11:56;;;;;;;;;;;29.40;75.70;;;;;;5035190;28;19916;-85
2022/09/03 14:14:33;;;;;;;;;;;29.50;74.20;;;;;;5038289;28;19938;-85
2022/09/03 14:17:05;;;;;;;;;;;29.80;75.90;;;;;;5036293;28;19909;-85
2022/09/03 14:19:39;;;;;;;;;;;29.90;75.40;;;;;;5048335;28;19909;-86
2022/09/03 14:22:12;;;;;;;;;;;30.10;73.70;;;;;;5033480;28;19917;-84
2022/09/03 14:24:47;;;;;;;;;;;30.10;71.60;;;;;;5033639;28;20407;-85
2022/09/03 14:27:21;;;;;;;;;;;30.10;71.80;;;;;;5034376;28;19917;-84
2022/09/03 14:29:52;;;;;;;;;;;30.10;72.20;;;;;;5037172;28;19909;-83
2022/09/03 14:32:23;;;;;;;;;;;30.30;73.00;;;;;;5046698;28;19908;-83
2022/09/03 14:35:02;;;;;;;;;;;31.20;70.30;;;;;;5055350;28;19913;-84
2022/09/03 14:37:38;;;;;;;;;;;33.30;65.50;;;;;;5055259;28;20525;-84
2022/09/03 14:40:03;;;;;;;;;;;35.00;61.30;;;;;;5047172;28;19916;-85
2022/09/03 14:42:29;;;;;;;;;;;35.00;58.40;;;;;;5034735;28;19909;-85
2022/09/03 14:45:21;;;;;;;;;;;35.00;57.20;;;;;;5034839;28;19940;-85
2022/09/03 14:48:10;;;;;;;;;;;35.90;54.80;;;;;;5015151;28;19910;-85
2022/09/03 14:50:57;;;;;;;;;;;37.80;55.70;;;;;;5045896;28;19913;-88
2022/09/03 14:53:23;;;;;;;;;;;39.40;52.30;;;;;;5049345;28;19916;-87
2022/09/03 14:55:51;;;;;;;;;;;40.60;48.20;;;;;;5039517;28;19909;-88
2022/09/03 14:58:23;;;;;;;;;;;41.10;45.40;;;;;;5041160;28;19913;-87
2022/09/03 15:00:49;;;;;;;;;;;40.30;43.10;;;;;;5042199;28;19925;-89
2022/09/03 15:03:33;;;;;;;;;;;39.80;43.10;;;;;;5041810;28;19917;-87
2022/09/03 15:06:02;;;;;;;;;;;38.40;42.90;;;;;;5042741;28;19913;-84
2022/09/03 15:08:28;;;;;;;;;;;36.70;44.10;;;;;;5047739;28;19900;-84
2022/09/03 15:10:56;;;;;;;;;;;35.40;46.60;;;;;;5034182;28;20373;-84
2022/09/03 15:13:24;;;;;;;;;;;34.30;47.60;;;;;;5038087;28;19909;-85